createdAt,value
2023-05-18T00:04:22.036Z,100842.94
2023-05-18T00:09:27.637Z,100838.56
2023-05-18T00:14:31.838Z,100837.97
2023-05-18T00:19:35.486Z,100834.66
2023-05-18T00:24:40.879Z,100836.94
2023-05-18T00:29:44.542Z,100845.09
2023-05-18T00:34:48.230Z,100845.09
2023-05-18T00:39:53.539Z,100833.53
2023-05-18T00:44:57.259Z,100835.38
2023-05-18T00:50:00.904Z,100832.56
2023-05-18T00:55:07.268Z,100835.56
2023-05-18T01:00:12.092Z,100837.94
2023-05-18T01:05:15.789Z,100844.41
2023-05-18T01:10:21.424Z,100848.50
2023-05-18T01:15:30.820Z,100856.09
2023-05-18T01:20:37.834Z,100849.97
2023-05-18T01:25:51.048Z,100849.53
2023-05-18T01:30:57.316Z,100831.81
2023-05-18T01:36:00.995Z,100837.88
2023-05-18T01:41:12.232Z,100832.91
2023-05-18T01:46:25.219Z,100829.91
2023-05-18T01:51:34.511Z,100824.28
2023-05-18T01:56:39.850Z,100834.59
2023-05-18T02:01:46.164Z,100831.25
2023-05-18T02:06:49.912Z,100822.28
2023-05-18T02:11:53.745Z,100817.16
2023-05-18T02:16:59.138Z,100799.75
2023-05-18T02:22:02.740Z,100801.47
2023-05-18T02:27:07.333Z,100798.47
2023-05-18T02:32:12.731Z,100811.16
2023-05-18T02:37:17.204Z,100815.44
2023-05-18T02:42:20.920Z,100821.16
2023-05-18T02:47:26.331Z,100830.97
2023-05-18T02:52:30.056Z,100834.22
2023-05-18T02:57:34.332Z,100832.56
2023-05-18T03:02:39.738Z,100845.69
2023-05-18T03:07:43.496Z,100852.19
2023-05-18T03:12:47.323Z,100848.50
2023-05-18T03:17:52.673Z,100858.59
2023-05-18T03:22:55.622Z,100859.41
2023-05-18T03:27:59.272Z,100864.09
2023-05-18T03:33:04.951Z,100863.13
2023-05-18T03:38:08.663Z,100879.13
2023-05-18T03:43:12.308Z,100880.06
2023-05-18T03:48:17.648Z,100894.28
2023-05-18T03:53:21.429Z,100900.53
2023-05-18T03:58:25.140Z,100898.47
2023-05-18T04:03:30.693Z,100903.53
2023-05-18T04:08:34.579Z,100907.56
2023-05-18T04:13:39.617Z,100909.00
2023-05-18T04:18:45.046Z,100919.88
2023-05-18T04:23:48.737Z,100927.41
2023-05-18T04:28:52.339Z,100931.53
2023-05-18T04:33:57.736Z,100937.22
2023-05-18T04:39:02.243Z,100945.72
2023-05-18T04:44:05.925Z,100950.94
2023-05-18T04:49:11.213Z,100950.88
2023-05-18T04:54:14.851Z,100960.94
2023-05-18T04:59:19.137Z,100955.41
2023-05-18T05:04:24.691Z,100962.03
2023-05-18T05:09:28.385Z,100964.34
2023-05-18T05:14:32.722Z,100957.88
2023-05-18T05:19:38.081Z,100965.97
2023-05-18T05:24:41.746Z,100966.38
2023-05-18T05:29:47.979Z,100971.97
2023-05-18T05:34:53.290Z,100971.91
2023-05-18T05:39:56.926Z,100966.09
2023-05-18T05:45:00.584Z,100972.66
2023-05-18T05:50:06.626Z,100982.75
2023-05-18T05:55:10.423Z,100977.34
2023-05-18T06:00:15.197Z,100970.53
2023-05-18T06:05:20.474Z,100959.50
2023-05-18T06:10:24.189Z,100961.41
2023-05-18T06:15:27.967Z,100967.81
2023-05-18T06:20:33.556Z,100959.31
2023-05-18T06:25:37.213Z,100955.50
2023-05-18T06:30:41.001Z,100964.09
2023-05-18T06:35:46.351Z,100955.19
2023-05-18T06:40:50.036Z,100948.03
2023-05-18T06:45:53.722Z,100954.22
2023-05-18T06:50:59.060Z,100949.06
2023-05-18T06:56:02.711Z,100945.69
2023-05-18T07:01:06.488Z,100948.78
2023-05-18T07:06:11.941Z,100952.41
2023-05-18T07:11:15.823Z,100955.25
2023-05-18T07:16:19.535Z,100947.72
2023-05-18T07:21:24.988Z,100946.97
2023-05-18T07:26:28.668Z,100948.81
2023-05-18T07:31:32.418Z,100949.81
2023-05-18T07:36:37.806Z,100952.72
2023-05-18T07:41:41.413Z,100947.66
2023-05-18T07:46:45.089Z,100947.84
2023-05-18T07:51:50.448Z,100934.03
2023-05-18T07:56:54.057Z,100935.19
2023-05-18T08:01:57.726Z,100938.59
2023-05-18T08:07:03.051Z,100939.69
2023-05-18T08:12:07.143Z,100945.84
2023-05-18T08:17:10.952Z,100939.09
2023-05-18T08:22:16.517Z,100942.75
2023-05-18T08:27:20.151Z,100941.25
2023-05-18T08:32:24.010Z,100937.03
2023-05-18T08:37:29.645Z,100926.81
2023-05-18T08:42:49.249Z,100932.09
2023-05-18T08:47:56.539Z,100911.19
2023-05-18T08:53:05.757Z,100913.84
2023-05-18T08:58:14.661Z,100912.50
2023-05-18T09:03:18.588Z,100915.91
2023-05-18T09:08:25.134Z,100915.19
2023-05-18T09:13:30.147Z,100909.22
2023-05-18T09:18:33.854Z,100907.50
2023-05-18T09:23:40.052Z,100900.84
2023-05-18T09:28:44.614Z,100901.38
2023-05-18T09:33:49.130Z,100916.22
2023-05-18T09:38:55.369Z,100911.84
2023-05-18T09:43:59.027Z,100916.44
2023-05-18T09:49:04.480Z,100909.44
2023-05-18T09:54:11.183Z,100906.09
2023-05-18T09:59:16.328Z,100904.47
2023-05-18T10:04:21.440Z,100898.78
2023-05-18T10:09:26.837Z,100899.75
2023-05-18T10:14:33.915Z,100897.19
2023-05-18T10:19:38.991Z,100891.13
2023-05-18T10:24:46.540Z,100885.03
2023-05-18T10:29:52.072Z,100894.63
2023-05-18T10:34:57.818Z,100888.66
2023-05-18T10:40:04.390Z,100898.50
2023-05-18T10:45:10.269Z,100901.25
2023-05-18T10:50:14.932Z,100902.91
2023-05-18T10:55:20.621Z,100895.22
2023-05-18T11:00:24.423Z,100897.78
2023-05-18T11:05:28.566Z,100894.34
2023-05-18T11:10:45.394Z,100889.28
2023-05-18T11:16:08.286Z,100892.88
2023-05-18T11:21:22.490Z,100896.38
2023-05-18T11:26:30.586Z,100899.16
2023-05-18T11:31:45.451Z,100899.25
2023-05-18T11:36:56.866Z,100899.19
2023-05-18T11:42:03.619Z,100914.81
2023-05-18T11:47:10.097Z,100911.56
2023-05-18T11:52:20.061Z,100911.84
2023-05-18T11:57:27.477Z,100903.28
2023-05-18T12:02:33.356Z,100907.63
2023-05-18T12:07:37.949Z,100904.25
2023-05-18T12:12:43.851Z,100904.41
2023-05-18T12:17:49.123Z,100913.03
2023-05-18T12:22:54.813Z,100906.94
2023-05-18T12:28:01.722Z,100902.72
2023-05-18T12:33:05.591Z,100901.91
2023-05-18T12:38:09.299Z,100906.41
2023-05-18T12:43:15.913Z,100908.19
2023-05-18T12:48:19.664Z,100908.13
2023-05-18T12:53:23.369Z,100907.44
2023-05-18T12:58:28.650Z,100910.06
2023-05-18T13:03:34.522Z,100918.03
2023-05-18T13:08:38.588Z,100918.81
2023-05-18T13:13:59.155Z,100918.16
2023-05-18T13:19:04.618Z,100925.97
2023-05-18T13:24:08.703Z,100934.88
2023-05-18T13:29:13.970Z,100941.66
2023-05-18T13:34:17.613Z,100954.75
2023-05-18T13:39:21.275Z,100965.75
2023-05-18T13:44:26.576Z,100966.38
2023-05-18T13:49:30.264Z,100974.41
2023-05-18T13:54:33.937Z,100977.63
2023-05-18T13:59:39.256Z,100978.81
2023-05-18T14:04:42.875Z,100978.94
2023-05-18T14:09:46.560Z,100981.13
2023-05-18T14:14:51.887Z,100991.69
2023-05-18T14:19:55.542Z,101006.47
2023-05-18T14:24:59.356Z,101011.56
2023-05-18T14:30:05.209Z,101014.41
2023-05-18T14:35:09.687Z,101017.31
2023-05-18T14:40:13.733Z,101016.59
2023-05-18T14:45:19.183Z,101020.81
2023-05-18T14:50:22.967Z,101028.28
2023-05-18T14:55:26.720Z,101038.00
2023-05-18T15:00:32.375Z,101044.19
2023-05-18T15:05:35.601Z,101046.81
2023-05-18T15:10:39.252Z,101049.06
2023-05-18T15:15:44.567Z,101065.28
2023-05-18T15:20:48.217Z,101064.56
2023-05-18T15:25:51.939Z,101065.38
2023-05-18T15:30:57.224Z,101065.94
2023-05-18T15:36:00.955Z,101059.94
2023-05-18T15:41:04.681Z,101065.88
2023-05-18T15:46:10.041Z,101069.78
2023-05-18T15:51:18.634Z,101075.16
2023-05-18T15:56:23.032Z,101072.47
2023-05-18T16:01:28.432Z,101066.25
2023-05-18T16:06:31.373Z,101078.72
2023-05-18T16:11:35.211Z,101071.59
2023-05-18T16:16:40.574Z,101081.28
2023-05-18T16:21:44.329Z,101068.69
2023-05-18T16:26:48.054Z,101069.72
2023-05-18T16:31:53.409Z,101070.66
2023-05-18T16:36:57.159Z,101066.22
2023-05-18T16:42:00.788Z,101064.06
2023-05-18T16:47:06.315Z,101075.59
2023-05-18T16:52:09.960Z,101076.63
2023-05-18T16:57:13.708Z,101077.94
2023-05-18T17:02:20.026Z,101093.91
2023-05-18T17:07:24.199Z,101082.94
2023-05-18T17:12:27.906Z,101088.28
2023-05-18T17:17:33.291Z,101082.41
2023-05-18T17:22:37.555Z,101077.59
2023-05-18T17:27:41.269Z,101073.84
2023-05-18T17:32:46.640Z,101070.13
2023-05-18T17:37:50.287Z,101071.16
2023-05-18T17:42:53.954Z,101076.28
2023-05-18T17:47:59.303Z,101078.44
2023-05-18T17:53:03.026Z,101076.06
2023-05-18T17:58:06.701Z,101070.88
2023-05-18T18:03:12.139Z,101071.97
2023-05-18T18:08:15.909Z,101080.31
2023-05-18T18:13:19.597Z,101071.63
2023-05-18T18:18:24.858Z,101067.38
2023-05-18T18:23:28.517Z,101055.84
2023-05-18T18:28:32.729Z,101062.19
2023-05-18T18:33:38.054Z,101065.81
2023-05-18T18:38:41.684Z,101066.31
2023-05-18T18:43:45.561Z,101062.56
2023-05-18T18:48:50.937Z,101060.63
2023-05-18T18:53:54.583Z,101055.31
2023-05-18T18:58:58.200Z,101059.84
2023-05-18T19:04:03.486Z,101060.72
2023-05-18T19:09:07.136Z,101065.47
2023-05-18T19:14:10.814Z,101068.75
2023-05-18T19:19:18.860Z,101068.59
2023-05-18T19:24:22.613Z,101065.09
2023-05-18T19:29:26.257Z,101066.91
2023-05-18T19:34:31.578Z,101072.75
2023-05-18T19:39:35.887Z,101070.56
2023-05-18T19:44:39.554Z,101064.03
2023-05-18T19:49:44.806Z,101060.84
2023-05-18T19:54:48.463Z,101067.53
2023-05-18T19:59:52.123Z,101074.06
2023-05-18T20:04:57.450Z,101056.59
2023-05-18T20:10:01.180Z,101065.13
2023-05-18T20:15:05.486Z,101064.97
2023-05-18T20:20:11.322Z,101052.22
2023-05-18T20:25:15.131Z,101053.06
2023-05-18T20:30:18.853Z,101049.94
2023-05-18T20:35:24.893Z,101041.06
2023-05-18T20:40:29.129Z,101034.22
2023-05-18T20:45:33.049Z,101030.38
2023-05-18T20:50:38.395Z,101047.22
2023-05-18T20:55:42.096Z,101046.91
2023-05-18T21:00:45.876Z,101033.78
2023-05-18T21:05:51.175Z,101027.44
2023-05-18T21:10:55.712Z,101027.69
2023-05-18T21:16:00.334Z,101025.38
2023-05-18T21:21:05.853Z,101023.09
2023-05-18T21:26:09.589Z,101020.38
2023-05-18T21:31:13.355Z,101024.03
2023-05-18T21:36:20.908Z,101009.50
2023-05-18T21:41:24.579Z,101007.53
2023-05-18T21:46:28.654Z,101008.50
2023-05-18T21:51:34.087Z,101012.59
2023-05-18T21:56:37.857Z,101011.84
2023-05-18T22:01:41.664Z,101009.59
2023-05-18T22:06:47.640Z,100999.44
2023-05-18T22:11:51.287Z,100993.78
2023-05-18T22:16:55.033Z,100986.19
2023-05-18T22:22:00.329Z,100991.41
2023-05-18T22:27:04.103Z,100985.91
2023-05-18T22:32:08.811Z,100977.72
2023-05-18T22:37:14.689Z,100973.19
2023-05-18T22:42:18.791Z,100989.03
2023-05-18T22:47:22.453Z,100987.22
2023-05-18T22:52:27.796Z,100986.19
2023-05-18T22:57:31.488Z,100988.59
2023-05-18T23:02:35.208Z,100983.63
2023-05-18T23:07:40.486Z,100984.03
2023-05-18T23:12:44.120Z,100973.88
2023-05-18T23:17:47.813Z,100969.19
2023-05-18T23:22:53.326Z,100974.81
2023-05-18T23:27:57.021Z,100977.00
2023-05-18T23:33:01.501Z,100965.72
2023-05-18T23:38:09.958Z,100964.66
2023-05-18T23:43:14.129Z,100960.38
2023-05-18T23:48:18.326Z,100955.81
2023-05-18T23:53:24.224Z,100959.66
2023-05-18T23:58:29.785Z,100963.63
